createdAt,value
2019-03-22T00:03:21.491Z,8.20
2019-03-22T00:08:25.725Z,8.10
2019-03-22T00:13:29.953Z,8.20
2019-03-22T00:18:34.557Z,8.10
2019-03-22T00:23:38.821Z,7.90
2019-03-22T00:28:43.054Z,7.90
2019-03-22T00:33:47.305Z,7.80
2019-03-22T00:38:52.111Z,7.90
2019-03-22T00:43:56.357Z,7.70
2019-03-22T00:49:00.600Z,7.60
2019-03-22T00:54:05.282Z,7.70
2019-03-22T00:59:09.495Z,7.60
2019-03-22T01:04:13.831Z,7.60
2019-03-22T01:09:18.104Z,7.50
2019-03-22T01:14:22.336Z,7.50
2019-03-22T01:19:26.558Z,7.40
2019-03-22T01:24:30.782Z,7.20
2019-03-22T01:29:35.557Z,7.00
2019-03-22T01:34:46.699Z,6.90
2019-03-22T01:39:54.192Z,7.10
2019-03-22T01:45:01.212Z,7.10
2019-03-22T01:50:15.142Z,7.00
2019-03-22T01:55:23.508Z,7.00
2019-03-22T02:00:28.311Z,6.90
2019-03-22T02:05:35.526Z,6.90
2019-03-22T02:10:41.131Z,7.00
2019-03-22T02:16:04.919Z,6.90
2019-03-22T02:21:15.171Z,6.80
2019-03-22T02:26:21.243Z,6.80
2019-03-22T02:31:29.839Z,6.80
2019-03-22T02:36:34.831Z,6.80
2019-03-22T02:41:39.186Z,6.70
2019-03-22T02:46:43.492Z,6.70
2019-03-22T02:51:48.018Z,6.70
2019-03-22T02:56:53.910Z,6.50
2019-03-22T03:02:04.196Z,6.50
2019-03-22T03:07:08.620Z,6.40
2019-03-22T03:12:13.414Z,6.20
2019-03-22T03:17:17.953Z,6.20
2019-03-22T03:22:22.872Z,6.30
2019-03-22T03:27:27.535Z,6.30
2019-03-22T03:32:31.966Z,6.30
2019-03-22T03:37:36.471Z,6.20
2019-03-22T03:42:40.703Z,6.10
2019-03-22T03:47:44.922Z,6.00
2019-03-22T03:52:49.174Z,5.90
2019-03-22T03:57:53.437Z,5.90
2019-03-22T04:02:57.666Z,5.90
2019-03-22T04:08:02.344Z,5.90
2019-03-22T04:13:08.342Z,5.80
2019-03-22T04:18:12.597Z,5.90
2019-03-22T04:23:17.139Z,5.70
2019-03-22T04:28:21.648Z,5.70
2019-03-22T04:33:25.877Z,5.60
2019-03-22T04:38:30.178Z,5.60
2019-03-22T04:43:34.664Z,5.70
2019-03-22T04:48:39.535Z,5.50
2019-03-22T04:53:50.495Z,5.50
2019-03-22T04:58:55.469Z,5.50
2019-03-22T05:04:00.205Z,5.40
2019-03-22T05:09:08.677Z,5.20
2019-03-22T05:14:14.045Z,5.10
2019-03-22T05:19:20.206Z,5.10
2019-03-22T05:24:27.221Z,5.20
2019-03-22T05:29:34.435Z,5.60
2019-03-22T05:34:38.657Z,5.70
2019-03-22T05:39:43.168Z,5.70
2019-03-22T05:44:47.397Z,5.80
2019-03-22T05:49:51.720Z,5.80
2019-03-22T05:54:55.977Z,5.70
2019-03-22T06:00:00.513Z,5.70
2019-03-22T06:05:05.329Z,5.90
2019-03-22T06:10:09.924Z,6.10
2019-03-22T06:15:14.525Z,6.30
2019-03-22T06:20:18.787Z,6.60
2019-03-22T06:25:23.034Z,6.70
2019-03-22T06:30:27.610Z,6.80
2019-03-22T06:35:32.226Z,6.90
2019-03-22T06:40:36.463Z,7.20
2019-03-22T06:45:40.982Z,7.30
2019-03-22T06:50:45.204Z,7.60
2019-03-22T06:55:49.411Z,8.00
2019-03-22T07:00:53.631Z,8.30
2019-03-22T07:05:57.863Z,8.50
2019-03-22T07:11:02.065Z,8.70
2019-03-22T07:16:06.566Z,9.00
2019-03-22T07:21:10.930Z,9.30
2019-03-22T07:26:15.129Z,9.60
2019-03-22T07:31:19.394Z,10.20
2019-03-22T07:36:23.621Z,10.90
2019-03-22T07:41:28.188Z,11.50
2019-03-22T07:46:33.313Z,12.00
2019-03-22T07:51:37.619Z,12.50
2019-03-22T07:56:41.889Z,12.80
2019-03-22T08:01:46.485Z,12.60
2019-03-22T08:06:50.765Z,13.10
2019-03-22T08:11:55.008Z,13.80
2019-03-22T08:16:59.390Z,15.70
2019-03-22T08:22:03.610Z,17.20
2019-03-22T08:27:07.858Z,20.10
2019-03-22T08:32:12.309Z,22.10
2019-03-22T08:37:16.573Z,22.40
2019-03-22T08:42:21.183Z,22.20
2019-03-22T08:47:33.653Z,22.30
2019-03-22T08:52:31.429Z,23.50
2019-03-22T08:57:36.478Z,24.40
2019-03-22T09:02:40.751Z,25.70
2019-03-22T09:07:44.964Z,28.30
2019-03-22T09:12:49.225Z,29.30
2019-03-22T09:17:54.195Z,28.30
2019-03-22T09:22:58.476Z,28.80
2019-03-22T09:28:03.210Z,31.40
2019-03-22T09:33:07.513Z,32.40
2019-03-22T09:38:13.159Z,33.30
2019-03-22T09:43:18.099Z,34.60
2019-03-22T09:48:22.637Z,35.90
2019-03-22T09:53:30.283Z,36.50
2019-03-22T09:58:33.364Z,36.40
2019-03-22T10:03:37.686Z,37.20
2019-03-22T10:08:42.863Z,37.50
2019-03-22T10:13:48.453Z,38.60
2019-03-22T10:18:53.176Z,39.10
2019-03-22T10:23:57.561Z,39.40
2019-03-22T10:29:01.913Z,39.10
2019-03-22T10:34:06.500Z,39.10
2019-03-22T10:39:11.050Z,41.10
2019-03-22T10:44:15.417Z,42.00
2019-03-22T10:49:19.717Z,38.50
2019-03-22T10:54:24.125Z,38.40
2019-03-22T10:59:28.662Z,39.60
2019-03-22T11:04:32.883Z,39.40
2019-03-22T11:09:37.156Z,40.50
2019-03-22T11:14:41.454Z,35.60
2019-03-22T11:19:45.984Z,37.30
2019-03-22T11:24:50.615Z,36.70
2019-03-22T11:29:54.949Z,37.40
2019-03-22T11:34:59.525Z,37.40
2019-03-22T11:40:04.325Z,37.30
2019-03-22T11:45:10.591Z,36.70
2019-03-22T11:50:15.268Z,35.60
2019-03-22T11:55:20.484Z,36.10
2019-03-22T12:00:25.375Z,37.50
2019-03-22T12:05:29.749Z,38.40
2019-03-22T12:10:34.365Z,38.40
2019-03-22T12:15:38.657Z,39.90
2019-03-22T12:20:42.914Z,37.60
2019-03-22T12:25:47.214Z,36.10
2019-03-22T12:30:51.661Z,34.70
2019-03-22T12:35:56.301Z,34.40
2019-03-22T12:41:00.671Z,35.80
2019-03-22T12:46:05.108Z,36.00
2019-03-22T12:51:09.411Z,35.30
2019-03-22T12:56:13.665Z,36.30
2019-03-22T13:01:17.901Z,38.10
2019-03-22T13:06:22.425Z,38.50
2019-03-22T13:11:26.910Z,37.60
2019-03-22T13:16:31.397Z,37.40
2019-03-22T13:21:35.649Z,38.30
2019-03-22T13:26:40.270Z,36.80
2019-03-22T13:31:44.481Z,36.00
2019-03-22T13:36:48.709Z,36.80
2019-03-22T13:41:53.167Z,35.70
2019-03-22T13:46:57.621Z,34.30
2019-03-22T13:52:01.813Z,34.70
2019-03-22T13:57:06.210Z,36.20
2019-03-22T14:02:10.513Z,36.60
2019-03-22T14:07:14.733Z,35.80
2019-03-22T14:12:19.704Z,36.00
2019-03-22T14:17:24.252Z,35.80
2019-03-22T14:22:28.465Z,35.80
2019-03-22T14:27:32.672Z,35.50
2019-03-22T14:32:37.153Z,34.60
2019-03-22T14:37:41.369Z,35.20
2019-03-22T14:42:45.604Z,35.70
2019-03-22T14:47:50.479Z,34.90
2019-03-22T14:52:54.676Z,35.00
2019-03-22T14:57:59.091Z,34.60
2019-03-22T15:03:05.226Z,34.50
2019-03-22T15:08:10.173Z,33.70
2019-03-22T15:13:14.750Z,33.00
2019-03-22T15:18:56.534Z,32.90
2019-03-22T15:24:19.886Z,33.00
2019-03-22T15:29:37.545Z,32.10
2019-03-22T15:35:13.615Z,31.60
2019-03-22T15:40:18.029Z,30.10
2019-03-22T15:45:22.254Z,29.50
2019-03-22T15:50:27.290Z,30.20
2019-03-22T15:55:31.613Z,30.30
2019-03-22T16:00:36.205Z,30.20
2019-03-22T16:05:40.529Z,29.70
2019-03-22T16:10:44.785Z,28.30
2019-03-22T16:15:49.046Z,27.80
2019-03-22T16:20:59.886Z,27.30
2019-03-22T16:25:59.192Z,26.20
2019-03-22T16:31:03.949Z,25.30
2019-03-22T16:36:08.249Z,24.30
2019-03-22T16:41:12.481Z,23.60
2019-03-22T16:46:16.717Z,22.90
2019-03-22T16:51:21.214Z,22.30
2019-03-22T16:56:25.464Z,21.60
2019-03-22T17:01:29.952Z,21.00
2019-03-22T17:06:34.208Z,20.60
2019-03-22T17:11:38.778Z,20.20
2019-03-22T17:16:42.970Z,19.90
2019-03-22T17:21:47.180Z,19.50
2019-03-22T17:26:51.453Z,19.20
2019-03-22T17:31:55.713Z,18.90
2019-03-22T17:37:01.606Z,18.80
2019-03-22T17:42:06.224Z,18.60
2019-03-22T17:47:11.070Z,18.40
2019-03-22T17:52:15.304Z,18.20
2019-03-22T17:57:19.589Z,17.80
2019-03-22T18:02:23.952Z,17.30
2019-03-22T18:07:28.176Z,17.30
2019-03-22T18:12:32.788Z,17.10
2019-03-22T18:17:37.101Z,17.00
2019-03-22T18:22:41.351Z,17.20
2019-03-22T18:27:45.575Z,17.10
2019-03-22T18:32:50.137Z,17.20
2019-03-22T18:37:54.613Z,17.10
2019-03-22T18:42:58.814Z,16.80
2019-03-22T18:48:03.904Z,16.90
2019-03-22T18:53:08.110Z,16.80
2019-03-22T18:58:12.389Z,16.50
2019-03-22T19:03:16.734Z,16.50
2019-03-22T19:08:21.289Z,16.30
2019-03-22T19:13:30.578Z,16.20
2019-03-22T19:18:32.802Z,16.00
2019-03-22T19:23:37.249Z,16.00
2019-03-22T19:28:41.517Z,15.80
2019-03-22T19:33:45.787Z,15.70
2019-03-22T19:38:50.152Z,15.30
2019-03-22T19:43:54.485Z,15.10
2019-03-22T19:48:59.134Z,15.10
2019-03-22T19:54:03.368Z,15.10
2019-03-22T19:59:07.857Z,15.10
2019-03-22T20:04:12.147Z,15.00
2019-03-22T20:10:11.754Z,14.90
2019-03-22T20:15:16.305Z,14.90
2019-03-22T20:20:20.697Z,14.70
2019-03-22T20:25:24.950Z,14.30
2019-03-22T20:30:29.198Z,14.20
2019-03-22T20:35:33.466Z,14.10
2019-03-22T20:40:38.297Z,14.20
2019-03-22T20:45:42.547Z,14.00
2019-03-22T20:50:47.140Z,13.80
2019-03-22T20:55:51.409Z,13.60
2019-03-22T21:00:55.914Z,13.40
2019-03-22T21:06:00.153Z,13.20
2019-03-22T21:11:04.773Z,13.00
2019-03-22T21:16:09.361Z,12.90
2019-03-22T21:21:13.663Z,12.70
2019-03-22T21:26:18.622Z,12.60
2019-03-22T21:31:22.894Z,12.50
2019-03-22T21:36:27.422Z,12.40
2019-03-22T21:41:31.658Z,12.20
2019-03-22T21:46:36.053Z,12.20
2019-03-22T21:51:40.567Z,12.10
2019-03-22T21:56:44.853Z,12.00
2019-03-22T22:01:49.702Z,11.90
2019-03-22T22:06:53.977Z,11.70
2019-03-22T22:11:58.217Z,11.60
2019-03-22T22:17:02.465Z,11.50
2019-03-22T22:22:06.898Z,11.40
2019-03-22T22:27:14.084Z,11.40
2019-03-22T22:32:17.271Z,11.30
2019-03-22T22:37:21.810Z,11.30
2019-03-22T22:42:26.063Z,11.10
2019-03-22T22:47:30.278Z,11.10
2019-03-22T22:52:34.508Z,11.00
2019-03-22T22:57:39.487Z,10.80
2019-03-22T23:02:44.061Z,10.60
2019-03-22T23:07:48.298Z,10.50
2019-03-22T23:12:52.853Z,10.60
2019-03-22T23:17:57.178Z,10.80
2019-03-22T23:23:01.511Z,10.60
2019-03-22T23:28:08.235Z,10.60
2019-03-22T23:33:12.453Z,10.50
2019-03-22T23:38:16.687Z,10.20
2019-03-22T23:43:20.928Z,10.10
2019-03-22T23:48:25.174Z,10.10
2019-03-22T23:53:29.474Z,10.00
2019-03-22T23:58:34.245Z,9.90
